createdAt,value
2017-03-08T00:00:09.055Z,926.81
2017-03-08T00:00:28.838Z,926.82
2017-03-08T00:00:48.623Z,926.81
2017-03-08T00:01:08.368Z,926.85
2017-03-08T00:01:28.164Z,926.85
2017-03-08T00:01:47.960Z,926.85
2017-03-08T00:02:07.164Z,926.83
2017-03-08T00:02:26.315Z,926.85
2017-03-08T00:02:46.141Z,926.87
2017-03-08T00:03:05.892Z,926.89
2017-03-08T00:03:25.631Z,926.85
2017-03-08T00:03:45.399Z,926.9
2017-03-08T00:04:04.582Z,926.92
2017-03-08T00:04:23.795Z,926.9
2017-03-08T00:04:43.578Z,926.91
2017-03-08T00:05:03.570Z,926.93
2017-03-08T00:05:23.309Z,926.88
2017-03-08T00:05:43.129Z,926.88
2017-03-08T00:06:02.912Z,926.9
2017-03-08T00:06:22.110Z,926.89
2017-03-08T00:06:41.286Z,926.91
2017-03-08T00:07:01.072Z,926.91
2017-03-08T00:07:20.864Z,926.93
2017-03-08T00:07:40.680Z,926.89
2017-03-08T00:08:00.452Z,926.93
2017-03-08T00:08:20.272Z,926.92
2017-03-08T00:08:40.082Z,926.95
2017-03-08T00:08:59.884Z,926.9
2017-03-08T00:09:19.674Z,926.9
2017-03-08T00:09:39.431Z,926.92
2017-03-08T00:09:59.196Z,926.91
2017-03-08T00:10:18.988Z,926.89
2017-03-08T00:10:38.788Z,926.87
2017-03-08T00:10:58.542Z,926.92
2017-03-08T00:11:18.332Z,926.92
2017-03-08T00:11:38.137Z,926.85
2017-03-08T00:11:57.938Z,926.86
2017-03-08T00:12:17.142Z,926.87
2017-03-08T00:12:35.720Z,926.86
2017-03-08T00:12:54.915Z,926.81
2017-03-08T00:13:14.678Z,926.8
2017-03-08T00:13:34.454Z,926.85
2017-03-08T00:13:54.220Z,926.8
2017-03-08T00:14:13.365Z,926.79
2017-03-08T00:14:33.151Z,926.79
2017-03-08T00:14:52.952Z,926.73
2017-03-08T00:15:12.727Z,926.77
2017-03-08T00:15:32.513Z,926.77
2017-03-08T00:15:51.695Z,926.81
2017-03-08T00:16:11.473Z,926.83
2017-03-08T00:16:30.669Z,926.77
2017-03-08T00:16:50.440Z,926.74
2017-03-08T00:17:10.203Z,926.77
2017-03-08T00:17:30.004Z,926.74
2017-03-08T00:17:49.211Z,926.75
2017-03-08T00:18:09.028Z,926.72
2017-03-08T00:18:28.817Z,926.68
2017-03-08T00:18:48.602Z,926.76
2017-03-08T00:19:08.351Z,926.77
2017-03-08T00:19:28.151Z,926.73
2017-03-08T00:19:47.312Z,926.74
2017-03-08T00:20:07.116Z,926.72
2017-03-08T00:20:26.877Z,926.75
2017-03-08T00:20:46.677Z,926.72
2017-03-08T00:21:06.431Z,926.73
2017-03-08T00:21:26.169Z,926.73
2017-03-08T00:21:45.956Z,926.75
2017-03-08T00:22:05.141Z,926.73
2017-03-08T00:22:24.926Z,926.73
2017-03-08T00:22:43.474Z,926.75
2017-03-08T00:23:03.230Z,926.69
2017-03-08T00:23:22.356Z,926.73
2017-03-08T00:23:40.971Z,926.74
2017-03-08T00:24:00.744Z,926.75
2017-03-08T00:24:20.555Z,926.77
2017-03-08T00:24:40.443Z,926.74
2017-03-08T00:25:00.733Z,926.69
2017-03-08T00:25:20.492Z,926.7
2017-03-08T00:25:40.580Z,926.68
2017-03-08T00:26:01.032Z,926.69
2017-03-08T00:26:20.807Z,926.66
2017-03-08T00:26:40.601Z,926.66
2017-03-08T00:27:00.519Z,926.66
2017-03-08T00:27:20.450Z,926.65
2017-03-08T00:27:40.662Z,926.63
2017-03-08T00:28:00.536Z,926.63
2017-03-08T00:28:19.974Z,926.6
2017-03-08T00:28:40.052Z,926.62
2017-03-08T00:28:59.714Z,926.58
2017-03-08T00:29:19.862Z,926.58
2017-03-08T00:29:39.899Z,926.54
2017-03-08T00:29:59.743Z,926.56
2017-03-08T00:30:33.376Z,926.6
2017-03-08T00:30:53.136Z,926.55
2017-03-08T00:31:13.009Z,926.57
2017-03-08T00:31:32.815Z,926.57
2017-03-08T00:31:52.589Z,926.58
2017-03-08T00:32:11.768Z,926.61
2017-03-08T00:32:31.576Z,926.61
2017-03-08T00:32:51.443Z,926.61
2017-03-08T00:33:11.287Z,926.63
2017-03-08T00:33:44.342Z,926.64
2017-03-08T00:34:04.198Z,926.67
2017-03-08T00:34:23.397Z,926.63
2017-03-08T00:34:43.392Z,926.64
2017-03-08T00:35:03.257Z,926.7
2017-03-08T00:35:23.050Z,926.67
2017-03-08T00:35:42.878Z,926.64
2017-03-08T00:36:02.621Z,926.65
2017-03-08T00:36:21.159Z,926.64
2017-03-08T00:36:40.941Z,926.65
2017-03-08T00:37:00.733Z,926.66
2017-03-08T00:37:19.909Z,926.68
2017-03-08T00:37:39.679Z,926.65
2017-03-08T00:37:59.526Z,926.65
2017-03-08T00:38:19.357Z,926.68
2017-03-08T00:38:39.109Z,926.7
2017-03-08T00:38:58.931Z,926.68
2017-03-08T00:39:18.128Z,926.64
2017-03-08T00:39:37.906Z,926.74
2017-03-08T00:39:57.696Z,926.7
2017-03-08T00:40:30.721Z,926.79
2017-03-08T00:40:50.502Z,926.78
2017-03-08T00:41:09.670Z,926.81
2017-03-08T00:41:29.445Z,926.82
2017-03-08T00:41:49.252Z,926.84
2017-03-08T00:42:09.063Z,926.91
2017-03-08T00:42:28.866Z,926.9
2017-03-08T00:42:48.674Z,926.91
2017-03-08T00:43:08.470Z,926.96
2017-03-08T00:43:28.320Z,926.99
2017-03-08T00:43:47.549Z,926.96
2017-03-08T00:44:07.364Z,927.02
2017-03-08T00:44:26.570Z,927.04
2017-03-08T00:44:46.391Z,927.06
2017-03-08T00:45:06.142Z,927.07
2017-03-08T00:45:25.952Z,927.1
2017-03-08T00:45:45.752Z,927.1
2017-03-08T00:46:05.523Z,927.06
2017-03-08T00:46:25.380Z,927.07
2017-03-08T00:46:45.217Z,927.11
2017-03-08T00:47:05.014Z,927.12
2017-03-08T00:47:24.182Z,927.08
2017-03-08T00:47:43.984Z,927.11
2017-03-08T00:48:03.750Z,927.13
2017-03-08T00:48:22.874Z,927.1
2017-03-08T00:48:42.671Z,927.05
2017-03-08T00:49:02.442Z,927.09
2017-03-08T00:49:22.451Z,927.14
2017-03-08T00:49:42.425Z,927.12
2017-03-08T00:50:02.206Z,927.07
2017-03-08T00:50:22.156Z,927.06
2017-03-08T00:50:41.935Z,927.06
2017-03-08T00:51:01.742Z,927.05
2017-03-08T00:51:21.555Z,927.04
2017-03-08T00:51:41.353Z,927.02
2017-03-08T00:52:01.173Z,927.06
2017-03-08T00:52:20.356Z,927.06
2017-03-08T00:52:40.152Z,927.05
2017-03-08T00:52:59.306Z,927.03
2017-03-08T00:53:19.105Z,927.05
2017-03-08T00:53:38.335Z,927.03
2017-03-08T00:53:58.135Z,927.06
2017-03-08T00:54:17.967Z,927.04
2017-03-08T00:54:37.731Z,927.02
2017-03-08T00:54:57.531Z,927.03
2017-03-08T00:55:16.731Z,927.04
2017-03-08T00:55:36.541Z,927.04
2017-03-08T00:55:56.346Z,927.03
2017-03-08T00:56:16.135Z,927.05
2017-03-08T00:56:35.942Z,927.06
2017-03-08T00:56:56.106Z,927.08
2017-03-08T00:57:15.373Z,927.04
2017-03-08T00:57:35.172Z,927.02
2017-03-08T00:57:55.051Z,927.01
2017-03-08T00:58:14.941Z,927.04
2017-03-08T00:58:34.664Z,926.97
2017-03-08T00:58:54.667Z,926.98
2017-03-08T00:59:14.711Z,926.97
2017-03-08T00:59:34.000Z,926.98
2017-03-08T00:59:53.844Z,926.97
2017-03-08T01:00:13.024Z,926.97
2017-03-08T01:00:32.218Z,926.94
2017-03-08T01:00:51.971Z,926.92
2017-03-08T01:01:11.747Z,926.92
2017-03-08T01:01:31.532Z,926.88
2017-03-08T01:01:51.307Z,926.88
2017-03-08T01:02:10.482Z,926.8
2017-03-08T01:02:30.212Z,926.81
2017-03-08T01:02:49.981Z,926.79
2017-03-08T01:03:09.806Z,926.78
2017-03-08T01:03:29.573Z,926.74
2017-03-08T01:03:49.333Z,926.71
2017-03-08T01:04:09.131Z,926.69
2017-03-08T01:04:28.886Z,926.69
2017-03-08T01:04:48.691Z,926.65
2017-03-08T01:05:08.458Z,926.66
2017-03-08T01:05:28.257Z,926.64
2017-03-08T01:05:48.079Z,926.63
2017-03-08T01:06:07.268Z,926.63
2017-03-08T01:06:26.460Z,926.61
2017-03-08T01:06:46.209Z,926.6
2017-03-08T01:07:06.020Z,926.59
2017-03-08T01:07:25.799Z,926.65
2017-03-08T01:07:45.567Z,926.63
2017-03-08T01:08:05.310Z,926.64
2017-03-08T01:08:25.084Z,926.68
2017-03-08T01:08:44.915Z,926.71
2017-03-08T01:09:04.737Z,926.71
2017-03-08T01:09:24.506Z,926.71
2017-03-08T01:09:44.336Z,926.71
2017-03-08T01:10:04.308Z,926.75
2017-03-08T01:10:24.059Z,926.74
2017-03-08T01:10:43.836Z,926.79
2017-03-08T01:11:03.593Z,926.78
2017-03-08T01:11:23.379Z,926.82
2017-03-08T01:11:43.140Z,926.79
2017-03-08T01:12:01.683Z,926.76
2017-03-08T01:12:21.460Z,926.78
2017-03-08T01:12:41.217Z,926.83
2017-03-08T01:13:00.979Z,926.82
2017-03-08T01:13:20.766Z,926.82
2017-03-08T01:13:40.530Z,926.82
2017-03-08T01:14:00.310Z,926.83
2017-03-08T01:14:20.073Z,926.82
2017-03-08T01:14:39.802Z,926.82
2017-03-08T01:14:59.647Z,926.81
2017-03-08T01:15:33.280Z,926.82
2017-03-08T01:15:53.047Z,926.82
2017-03-08T01:16:12.864Z,926.79
2017-03-08T01:16:32.650Z,926.75
2017-03-08T01:16:52.426Z,926.77
2017-03-08T01:17:11.592Z,926.77
2017-03-08T01:17:31.354Z,926.74
2017-03-08T01:17:51.157Z,926.7
2017-03-08T01:18:10.307Z,926.74
2017-03-08T01:18:30.031Z,926.72
2017-03-08T01:18:49.771Z,926.68
2017-03-08T01:19:09.557Z,926.63
2017-03-08T01:19:29.345Z,926.63
2017-03-08T01:19:48.538Z,926.58
2017-03-08T01:20:08.370Z,926.56
2017-03-08T01:20:27.549Z,926.57
2017-03-08T01:20:46.125Z,926.53
2017-03-08T01:21:05.908Z,926.5
2017-03-08T01:21:25.710Z,926.47
2017-03-08T01:21:45.461Z,926.48
2017-03-08T01:22:04.042Z,926.41
2017-03-08T01:22:23.202Z,926.39
2017-03-08T01:22:42.969Z,926.34
2017-03-08T01:23:02.745Z,926.36
2017-03-08T01:23:22.535Z,926.32
2017-03-08T01:23:42.325Z,926.31
2017-03-08T01:24:02.071Z,926.27
2017-03-08T01:24:21.842Z,926.33
2017-03-08T01:24:41.657Z,926.26
2017-03-08T01:25:01.426Z,926.25
2017-03-08T01:25:21.204Z,926.27
2017-03-08T01:25:40.973Z,926.27
2017-03-08T01:26:00.706Z,926.26
2017-03-08T01:26:20.514Z,926.29
2017-03-08T01:26:40.303Z,926.26
2017-03-08T01:27:00.091Z,926.29
2017-03-08T01:27:19.291Z,926.26
2017-03-08T01:27:39.081Z,926.24
2017-03-08T01:27:58.235Z,926.28
2017-03-08T01:28:18.040Z,926.27
2017-03-08T01:28:36.024Z,926.34
2017-03-08T01:28:55.834Z,926.33
2017-03-08T01:29:15.635Z,926.4
2017-03-08T01:29:35.402Z,926.4
2017-03-08T01:29:54.584Z,926.43
2017-03-08T01:30:14.370Z,926.46
2017-03-08T01:30:34.134Z,926.49
2017-03-08T01:30:52.704Z,926.54
2017-03-08T01:31:11.893Z,926.53
2017-03-08T01:31:31.663Z,926.6
2017-03-08T01:31:51.451Z,926.59
2017-03-08T01:32:11.238Z,926.66
2017-03-08T01:32:30.405Z,926.69
2017-03-08T01:32:50.165Z,926.73
2017-03-08T01:33:09.967Z,926.78
2017-03-08T01:33:29.745Z,926.8
2017-03-08T01:33:49.513Z,926.79
2017-03-08T01:34:09.248Z,926.83
2017-03-08T01:34:28.974Z,926.85
2017-03-08T01:34:47.529Z,926.91
2017-03-08T01:35:07.290Z,926.94
2017-03-08T01:35:27.096Z,926.97
2017-03-08T01:35:46.879Z,926.96
2017-03-08T01:36:06.678Z,927.01
2017-03-08T01:36:26.459Z,927.02
2017-03-08T01:36:46.229Z,927.04
2017-03-08T01:37:05.391Z,927.07
2017-03-08T01:37:24.538Z,927.1
2017-03-08T01:37:44.292Z,927.13
2017-03-08T01:38:04.115Z,927.14
2017-03-08T01:38:23.881Z,927.16
2017-03-08T01:38:43.661Z,927.21
2017-03-08T01:39:03.436Z,927.19
2017-03-08T01:39:23.220Z,927.23
2017-03-08T01:39:41.220Z,927.28
2017-03-08T01:40:00.973Z,927.28
2017-03-08T01:40:20.758Z,927.35
2017-03-08T01:40:40.568Z,927.33
2017-03-08T01:40:59.743Z,927.34
2017-03-08T01:41:19.535Z,927.37
2017-03-08T01:41:39.344Z,927.33
2017-03-08T01:41:59.135Z,927.36
2017-03-08T01:42:18.337Z,927.27
2017-03-08T01:42:38.155Z,927.31
2017-03-08T01:42:57.966Z,927.29
2017-03-08T01:43:17.154Z,927.29
2017-03-08T01:43:36.921Z,927.22
2017-03-08T01:43:56.084Z,927.18
2017-03-08T01:44:15.846Z,927.19
2017-03-08T01:44:35.040Z,927.19
2017-03-08T01:44:54.836Z,927.15
2017-03-08T01:45:14.636Z,927.15
2017-03-08T01:45:34.415Z,927.13
2017-03-08T01:45:54.362Z,927.05
2017-03-08T01:46:13.526Z,927.07
2017-03-08T01:46:33.324Z,927.05
2017-03-08T01:46:53.117Z,927.05
2017-03-08T01:47:12.893Z,927.05
2017-03-08T01:47:32.656Z,927
2017-03-08T01:47:52.396Z,926.99
2017-03-08T01:48:11.577Z,927.02
2017-03-08T01:48:31.361Z,927
2017-03-08T01:48:51.163Z,926.99
2017-03-08T01:49:10.941Z,926.99
2017-03-08T01:49:30.726Z,926.97
2017-03-08T01:49:50.517Z,927
2017-03-08T01:50:10.674Z,927.07
2017-03-08T01:50:30.445Z,927.07
2017-03-08T01:50:50.199Z,927.07
2017-03-08T01:51:08.784Z,927.08
2017-03-08T01:51:28.583Z,927.12
2017-03-08T01:51:48.371Z,927.16
2017-03-08T01:52:08.133Z,927.2
2017-03-08T01:52:27.897Z,927.23
2017-03-08T01:52:47.669Z,927.26
2017-03-08T01:53:06.871Z,927.26
2017-03-08T01:53:26.636Z,927.25
2017-03-08T01:53:46.410Z,927.29
2017-03-08T01:54:06.183Z,927.3
2017-03-08T01:54:25.923Z,927.33
2017-03-08T01:54:45.672Z,927.3
2017-03-08T01:55:05.450Z,927.31
2017-03-08T01:55:24.621Z,927.34
2017-03-08T01:55:44.392Z,927.32
2017-03-08T01:56:04.191Z,927.33
2017-03-08T01:56:23.987Z,927.32
2017-03-08T01:56:43.714Z,927.27
2017-03-08T01:57:03.512Z,927.23
2017-03-08T01:57:23.290Z,927.32
2017-03-08T01:57:43.042Z,927.27
2017-03-08T01:58:02.782Z,927.27
2017-03-08T01:58:22.576Z,927.22
2017-03-08T01:58:40.558Z,927.22
2017-03-08T01:59:00.362Z,927.2
2017-03-08T01:59:20.145Z,927.22
2017-03-08T01:59:39.947Z,927.21
2017-03-08T02:00:00.489Z,927.21
2017-03-08T02:00:19.678Z,927.2
2017-03-08T02:00:39.477Z,927.23
2017-03-08T02:00:59.295Z,927.19
2017-03-08T02:01:18.511Z,927.21
2017-03-08T02:01:38.288Z,927.16
2017-03-08T02:01:58.077Z,927.12
2017-03-08T02:02:17.226Z,927.11
2017-03-08T02:02:37.021Z,927.1
2017-03-08T02:02:56.819Z,927.14
2017-03-08T02:03:16.611Z,927.09
2017-03-08T02:03:36.364Z,927.1
2017-03-08T02:03:56.092Z,927.1
2017-03-08T02:04:15.837Z,927.14
2017-03-08T02:04:35.639Z,927.15
2017-03-08T02:04:55.402Z,927.13
2017-03-08T02:05:15.396Z,927.17
2017-03-08T02:05:35.200Z,927.13
2017-03-08T02:05:54.965Z,927.17
2017-03-08T02:06:14.716Z,927.16
2017-03-08T02:06:34.497Z,927.17
2017-03-08T02:06:54.288Z,927.12
2017-03-08T02:07:13.483Z,927.14
2017-03-08T02:07:33.258Z,927.15
2017-03-08T02:07:53.052Z,927.21
2017-03-08T02:08:12.807Z,927.22
2017-03-08T02:08:31.430Z,927.17
2017-03-08T02:08:50.020Z,927.27
2017-03-08T02:09:09.816Z,927.27
2017-03-08T02:09:29.634Z,927.25
2017-03-08T02:09:49.426Z,927.28
2017-03-08T02:10:09.198Z,927.27
2017-03-08T02:10:28.981Z,927.28
2017-03-08T02:10:48.990Z,927.27
2017-03-08T02:11:08.794Z,927.28
2017-03-08T02:11:28.560Z,927.29
2017-03-08T02:11:48.359Z,927.31
2017-03-08T02:12:08.196Z,927.32
2017-03-08T02:12:27.368Z,927.35
2017-03-08T02:12:47.119Z,927.34
2017-03-08T02:13:06.901Z,927.32
2017-03-08T02:13:26.687Z,927.29
2017-03-08T02:13:45.872Z,927.31
2017-03-08T02:14:05.726Z,927.31
2017-03-08T02:14:25.519Z,927.32
2017-03-08T02:14:45.348Z,927.31
2017-03-08T02:15:05.129Z,927.34
2017-03-08T02:15:24.931Z,927.33
2017-03-08T02:15:44.702Z,927.33
2017-03-08T02:16:04.461Z,927.35
2017-03-08T02:16:24.243Z,927.36
2017-03-08T02:16:44.042Z,927.38
2017-03-08T02:17:03.825Z,927.39
2017-03-08T02:17:23.606Z,927.39
2017-03-08T02:17:43.350Z,927.32
2017-03-08T02:18:03.127Z,927.42
2017-03-08T02:18:22.941Z,927.34
2017-03-08T02:18:42.776Z,927.37
2017-03-08T02:19:02.536Z,927.36
2017-03-08T02:19:22.296Z,927.42
2017-03-08T02:19:42.079Z,927.39
2017-03-08T02:20:01.266Z,927.34
2017-03-08T02:20:21.077Z,927.38
2017-03-08T02:20:40.868Z,927.38
2017-03-08T02:21:00.703Z,927.39
2017-03-08T02:21:20.441Z,927.38
2017-03-08T02:21:40.207Z,927.36
2017-03-08T02:22:00.003Z,927.39
2017-03-08T02:22:19.267Z,927.38
2017-03-08T02:22:39.097Z,927.39
2017-03-08T02:22:58.864Z,927.42
2017-03-08T02:23:18.059Z,927.41
2017-03-08T02:23:37.849Z,927.42
2017-03-08T02:23:57.610Z,927.44
2017-03-08T02:24:17.488Z,927.45
2017-03-08T02:24:36.188Z,927.46
2017-03-08T02:24:55.993Z,927.45
2017-03-08T02:25:15.364Z,927.46
2017-03-08T02:25:35.164Z,927.44
2017-03-08T02:25:54.913Z,927.46
2017-03-08T02:26:14.706Z,927.49
2017-03-08T02:26:34.595Z,927.49
2017-03-08T02:26:54.367Z,927.49
2017-03-08T02:27:13.541Z,927.47
2017-03-08T02:27:33.293Z,927.46
2017-03-08T02:27:53.046Z,927.47
2017-03-08T02:28:12.202Z,927.43
2017-03-08T02:28:32.029Z,927.48
2017-03-08T02:28:51.811Z,927.46
2017-03-08T02:29:11.559Z,927.46
2017-03-08T02:29:31.309Z,927.5
2017-03-08T02:29:51.066Z,927.47
2017-03-08T02:30:10.231Z,927.48
2017-03-08T02:30:29.566Z,927.52
2017-03-08T02:30:49.476Z,927.51
2017-03-08T02:31:09.299Z,927.54
2017-03-08T02:31:29.103Z,927.5
2017-03-08T02:31:48.884Z,927.53
2017-03-08T02:32:08.692Z,927.54
2017-03-08T02:32:27.983Z,927.53
2017-03-08T02:32:47.155Z,927.52
2017-03-08T02:33:06.915Z,927.51
2017-03-08T02:33:25.503Z,927.5
2017-03-08T02:33:45.275Z,927.49
2017-03-08T02:34:05.042Z,927.52
2017-03-08T02:34:25.099Z,927.49
2017-03-08T02:34:44.336Z,927.48
2017-03-08T02:35:04.108Z,927.5
2017-03-08T02:35:23.333Z,927.51
2017-03-08T02:35:43.156Z,927.52
2017-03-08T02:36:03.050Z,927.53
2017-03-08T02:36:22.338Z,927.51
2017-03-08T02:36:42.216Z,927.51
2017-03-08T02:37:01.960Z,927.5
2017-03-08T02:37:21.161Z,927.46
2017-03-08T02:37:40.941Z,927.47
2017-03-08T02:38:00.750Z,927.46
2017-03-08T02:38:20.731Z,927.45
2017-03-08T02:38:40.601Z,927.43
2017-03-08T02:39:00.351Z,927.46
2017-03-08T02:39:20.113Z,927.47
2017-03-08T02:39:39.929Z,927.44
2017-03-08T02:39:59.705Z,927.46
2017-03-08T02:40:19.663Z,927.44
2017-03-08T02:40:39.401Z,927.41
2017-03-08T02:40:58.600Z,927.41
2017-03-08T02:41:18.390Z,927.41
2017-03-08T02:41:38.141Z,927.43
2017-03-08T02:41:57.943Z,927.45
2017-03-08T02:42:17.240Z,927.45
2017-03-08T02:42:37.402Z,927.49
2017-03-08T02:42:57.188Z,927.43
2017-03-08T02:43:16.936Z,927.44
2017-03-08T02:43:36.170Z,927.46
2017-03-08T02:43:55.949Z,927.49
2017-03-08T02:44:15.252Z,927.54
2017-03-08T02:44:33.317Z,927.49
2017-03-08T02:44:53.102Z,927.5
2017-03-08T02:45:12.897Z,927.5
2017-03-08T02:45:32.052Z,927.5
2017-03-08T02:45:51.937Z,927.48
2017-03-08T02:46:11.735Z,927.49
2017-03-08T02:46:31.578Z,927.52
2017-03-08T02:46:50.735Z,927.52
2017-03-08T02:47:09.341Z,927.52
2017-03-08T02:47:29.128Z,927.53
2017-03-08T02:47:48.918Z,927.51
2017-03-08T02:48:08.696Z,927.53
2017-03-08T02:48:26.701Z,927.52
2017-03-08T02:48:46.494Z,927.48
2017-03-08T02:49:06.266Z,927.53
2017-03-08T02:49:26.049Z,927.54
2017-03-08T02:49:45.832Z,927.53
2017-03-08T02:50:05.669Z,927.54
2017-03-08T02:50:25.521Z,927.49
2017-03-08T02:50:45.302Z,927.52
2017-03-08T02:51:05.172Z,927.49
2017-03-08T02:51:24.969Z,927.49
2017-03-08T02:51:43.542Z,927.46
2017-03-08T02:52:03.299Z,927.46
2017-03-08T02:52:23.109Z,927.43
2017-03-08T02:52:42.908Z,927.42
2017-03-08T02:53:02.741Z,927.42
2017-03-08T02:53:22.480Z,927.39
2017-03-08T02:53:42.233Z,927.4
2017-03-08T02:54:01.401Z,927.42
2017-03-08T02:54:21.197Z,927.43
2017-03-08T02:54:40.969Z,927.41
2017-03-08T02:54:59.534Z,927.39
2017-03-08T02:55:19.506Z,927.4
2017-03-08T02:55:39.280Z,927.38
2017-03-08T02:55:59.089Z,927.45
2017-03-08T02:56:18.938Z,927.42
2017-03-08T02:56:38.891Z,927.41
2017-03-08T02:56:58.680Z,927.44
2017-03-08T02:57:17.870Z,927.39
2017-03-08T02:57:37.672Z,927.38
2017-03-08T02:57:57.448Z,927.38
2017-03-08T02:58:17.277Z,927.38
2017-03-08T02:58:37.150Z,927.38
2017-03-08T02:58:56.949Z,927.35
2017-03-08T02:59:16.750Z,927.4
2017-03-08T02:59:36.522Z,927.35
2017-03-08T02:59:56.268Z,927.35
2017-03-08T03:00:16.300Z,927.4
2017-03-08T03:00:36.208Z,927.37
2017-03-08T03:00:56.069Z,927.35
2017-03-08T03:01:15.860Z,927.32
2017-03-08T03:01:35.063Z,927.34
2017-03-08T03:01:54.896Z,927.33
2017-03-08T03:02:14.740Z,927.28
2017-03-08T03:02:34.564Z,927.28
2017-03-08T03:02:54.334Z,927.22
2017-03-08T03:03:14.102Z,927.2
2017-03-08T03:03:32.701Z,927.24
2017-03-08T03:03:52.502Z,927.22
2017-03-08T03:04:11.748Z,927.18
2017-03-08T03:04:31.902Z,927.16
2017-03-08T03:04:51.642Z,927.16
2017-03-08T03:05:11.481Z,927.12
2017-03-08T03:05:31.271Z,927.1
2017-03-08T03:05:51.066Z,927.1
2017-03-08T03:06:10.329Z,927.09
2017-03-08T03:06:29.943Z,927.1
2017-03-08T03:06:49.755Z,927.1
2017-03-08T03:07:09.491Z,927.06
2017-03-08T03:07:28.684Z,927.08
2017-03-08T03:07:48.487Z,927.05
2017-03-08T03:08:08.326Z,927.02
2017-03-08T03:08:28.405Z,927.04
2017-03-08T03:08:47.625Z,927.04
2017-03-08T03:09:07.408Z,927.06
2017-03-08T03:09:27.148Z,926.99
2017-03-08T03:09:46.927Z,927.05
2017-03-08T03:10:06.137Z,927.03
2017-03-08T03:10:25.561Z,927
2017-03-08T03:10:44.814Z,927.03
2017-03-08T03:11:04.693Z,926.99
2017-03-08T03:11:24.491Z,927.04
2017-03-08T03:11:44.311Z,927.03
2017-03-08T03:12:04.205Z,927.06
2017-03-08T03:12:24.049Z,927.08
2017-03-08T03:12:43.837Z,927.04
2017-03-08T03:13:03.630Z,927.03
2017-03-08T03:13:23.467Z,927.01
2017-03-08T03:13:43.247Z,927.03
2017-03-08T03:14:02.409Z,927
2017-03-08T03:14:22.042Z,927.01
2017-03-08T03:14:42.180Z,926.99
2017-03-08T03:15:01.990Z,927
2017-03-08T03:15:21.777Z,926.98
2017-03-08T03:15:40.957Z,926.98
2017-03-08T03:16:00.844Z,926.97
2017-03-08T03:16:19.749Z,926.98
2017-03-08T03:16:38.778Z,927
2017-03-08T03:16:58.566Z,926.95
2017-03-08T03:17:18.355Z,926.95
2017-03-08T03:17:37.560Z,926.96
2017-03-08T03:17:57.307Z,926.95
2017-03-08T03:18:17.237Z,926.95
2017-03-08T03:18:37.279Z,926.95
2017-03-08T03:18:57.054Z,926.92
2017-03-08T03:19:16.859Z,926.94
2017-03-08T03:19:36.645Z,926.91
2017-03-08T03:19:56.444Z,926.92
2017-03-08T03:20:15.679Z,926.89
2017-03-08T03:20:34.986Z,926.91
2017-03-08T03:20:54.867Z,926.93
2017-03-08T03:21:14.672Z,926.89
2017-03-08T03:21:34.442Z,926.88
2017-03-08T03:21:54.214Z,926.84
2017-03-08T03:22:14.038Z,926.84
2017-03-08T03:22:33.924Z,926.86
2017-03-08T03:22:53.703Z,926.84
2017-03-08T03:23:13.501Z,926.84
2017-03-08T03:23:32.711Z,926.9
2017-03-08T03:23:51.914Z,926.79
2017-03-08T03:24:11.734Z,926.77
2017-03-08T03:24:31.150Z,926.73
2017-03-08T03:24:50.932Z,926.74
2017-03-08T03:25:10.135Z,926.7
2017-03-08T03:25:43.802Z,926.68
2017-03-08T03:26:03.007Z,926.69
2017-03-08T03:26:22.917Z,926.71
2017-03-08T03:26:42.728Z,926.68
2017-03-08T03:27:01.902Z,926.64
2017-03-08T03:27:21.716Z,926.64
2017-03-08T03:27:41.513Z,926.62
2017-03-08T03:28:01.280Z,926.63
2017-03-08T03:28:21.203Z,926.62
2017-03-08T03:28:41.081Z,926.63
2017-03-08T03:29:00.876Z,926.65
2017-03-08T03:29:20.690Z,926.62
2017-03-08T03:29:40.495Z,926.66
2017-03-08T03:29:59.695Z,926.65
2017-03-08T03:30:19.693Z,926.64
2017-03-08T03:30:39.819Z,926.65
2017-03-08T03:30:59.022Z,926.63
2017-03-08T03:31:18.190Z,926.61
2017-03-08T03:31:37.970Z,926.63
2017-03-08T03:31:57.716Z,926.65
2017-03-08T03:32:17.052Z,926.65
2017-03-08T03:32:35.828Z,926.61
2017-03-08T03:32:55.620Z,926.62
2017-03-08T03:33:15.382Z,926.69
2017-03-08T03:33:34.539Z,926.65
2017-03-08T03:33:54.290Z,926.65
2017-03-08T03:34:13.571Z,926.63
2017-03-08T03:34:32.952Z,926.62
2017-03-08T03:34:52.727Z,926.62
2017-03-08T03:35:12.504Z,926.63
2017-03-08T03:35:32.339Z,926.6
2017-03-08T03:35:52.109Z,926.62
2017-03-08T03:36:11.935Z,926.61
2017-03-08T03:36:31.909Z,926.61
2017-03-08T03:36:51.684Z,926.59
2017-03-08T03:37:10.886Z,926.59
2017-03-08T03:37:30.096Z,926.62
2017-03-08T03:37:49.881Z,926.64
2017-03-08T03:38:09.677Z,926.63
2017-03-08T03:38:29.734Z,926.64
2017-03-08T03:38:49.523Z,926.57
2017-03-08T03:39:09.323Z,926.56
2017-03-08T03:39:28.499Z,926.58
2017-03-08T03:39:48.295Z,926.61
2017-03-08T03:40:08.102Z,926.59
2017-03-08T03:40:28.126Z,926.6
2017-03-08T03:40:47.345Z,926.64
2017-03-08T03:41:05.959Z,926.61
2017-03-08T03:41:25.749Z,926.6
2017-03-08T03:41:45.539Z,926.63
2017-03-08T03:42:05.333Z,926.63
2017-03-08T03:42:25.187Z,926.61
2017-03-08T03:42:44.992Z,926.65
2017-03-08T03:43:04.793Z,926.67
2017-03-08T03:43:24.603Z,926.68
2017-03-08T03:43:44.379Z,926.68
2017-03-08T03:44:04.155Z,926.65
2017-03-08T03:44:24.098Z,926.68
2017-03-08T03:44:43.951Z,926.68
2017-03-08T03:45:03.755Z,926.66
2017-03-08T03:45:23.539Z,926.64
2017-03-08T03:45:43.343Z,926.67
2017-03-08T03:46:03.124Z,926.66
2017-03-08T03:46:22.980Z,926.66
2017-03-08T03:46:42.766Z,926.63
2017-03-08T03:47:02.597Z,926.61
2017-03-08T03:47:22.362Z,926.64
2017-03-08T03:47:42.109Z,926.68
2017-03-08T03:48:01.886Z,926.66
2017-03-08T03:48:21.853Z,926.65
2017-03-08T03:48:41.770Z,926.65
2017-03-08T03:49:01.547Z,926.63
2017-03-08T03:49:21.322Z,926.66
2017-03-08T03:49:41.086Z,926.64
2017-03-08T03:50:00.863Z,926.61
2017-03-08T03:50:20.087Z,926.62
2017-03-08T03:50:39.874Z,926.61
2017-03-08T03:50:59.664Z,926.59
2017-03-08T03:51:19.434Z,926.56
2017-03-08T03:51:39.212Z,926.6
2017-03-08T03:51:59.015Z,926.61
2017-03-08T03:52:18.806Z,926.53
2017-03-08T03:52:38.629Z,926.56
2017-03-08T03:52:58.409Z,926.56
2017-03-08T03:53:18.200Z,926.51
2017-03-08T03:53:37.966Z,926.52
2017-03-08T03:53:57.762Z,926.5
2017-03-08T03:54:17.061Z,926.51
2017-03-08T03:54:36.895Z,926.51
2017-03-08T03:54:56.674Z,926.51
2017-03-08T03:55:15.873Z,926.52
2017-03-08T03:55:35.625Z,926.48
2017-03-08T03:55:55.425Z,926.44
2017-03-08T03:56:15.512Z,926.49
2017-03-08T03:56:35.379Z,926.45
2017-03-08T03:56:55.123Z,926.46
2017-03-08T03:57:14.898Z,926.43
2017-03-08T03:57:34.054Z,926.44
2017-03-08T03:57:53.832Z,926.45
2017-03-08T03:58:13.714Z,926.42
2017-03-08T03:58:33.810Z,926.45
2017-03-08T03:58:53.604Z,926.43
2017-03-08T03:59:13.416Z,926.4
2017-03-08T03:59:33.242Z,926.42
2017-03-08T03:59:53.023Z,926.45
2017-03-08T04:00:26.755Z,926.42
2017-03-08T04:00:48.206Z,926.41
2017-03-08T04:01:07.377Z,926.42
2017-03-08T04:01:25.931Z,926.45
2017-03-08T04:01:45.090Z,926.47
2017-03-08T04:02:04.898Z,926.47
2017-03-08T04:02:25.029Z,926.49
2017-03-08T04:02:44.342Z,926.47
2017-03-08T04:03:04.089Z,926.49
2017-03-08T04:03:23.880Z,926.49
2017-03-08T04:03:43.665Z,926.47
2017-03-08T04:04:03.427Z,926.5
2017-03-08T04:04:23.541Z,926.52
2017-03-08T04:04:43.491Z,926.51
2017-03-08T04:05:02.626Z,926.53
2017-03-08T04:05:21.768Z,926.52
2017-03-08T04:05:40.926Z,926.53
2017-03-08T04:06:00.711Z,926.52
2017-03-08T04:06:20.707Z,926.51
2017-03-08T04:06:40.555Z,926.53
2017-03-08T04:07:00.330Z,926.5
2017-03-08T04:07:20.141Z,926.5
2017-03-08T04:07:39.916Z,926.55